createdAt,value
2018-12-22T00:00:32.968Z,0
2018-12-22T00:01:32.719Z,0
2018-12-22T00:02:32.209Z,0
2018-12-22T00:03:32.208Z,0
2018-12-22T00:04:32.705Z,0
2018-12-22T00:05:32.496Z,0
2018-12-22T00:06:32.707Z,0
2018-12-22T00:07:32.429Z,0
2018-12-22T00:08:32.669Z,0
2018-12-22T00:09:32.486Z,0
2018-12-22T00:10:34.568Z,0
2018-12-22T00:11:32.222Z,0
2018-12-22T00:12:32.662Z,0
2018-12-22T00:13:32.892Z,0
2018-12-22T00:14:32.650Z,0
2018-12-22T00:15:32.160Z,0
2018-12-22T00:16:32.407Z,0
2018-12-22T00:17:32.646Z,0
2018-12-22T00:18:35.588Z,0
2018-12-22T00:19:32.225Z,0
2018-12-22T00:20:32.638Z,0
2018-12-22T00:21:32.652Z,0
2018-12-22T00:22:32.478Z,0
2018-12-22T00:23:32.113Z,0
2018-12-22T00:24:32.616Z,0
2018-12-22T00:25:32.616Z,0
2018-12-22T00:26:31.839Z,0
2018-12-22T00:27:32.611Z,0
2018-12-22T00:28:32.119Z,0
2018-12-22T00:29:32.341Z,0
2018-12-22T00:30:32.578Z,0
2018-12-22T00:31:32.350Z,0
2018-12-22T00:32:32.335Z,0
2018-12-22T00:33:32.567Z,0
2018-12-22T00:34:32.805Z,0
2018-12-22T00:35:32.308Z,0
2018-12-22T00:36:32.551Z,0
2018-12-22T00:37:32.565Z,0
2018-12-22T00:38:32.312Z,0
2018-12-22T00:39:32.561Z,0
2018-12-22T00:40:32.555Z,0
2018-12-22T00:41:32.040Z,0
2018-12-22T00:42:32.564Z,0
2018-12-22T00:43:32.548Z,0
2018-12-22T00:44:32.581Z,0
2018-12-22T00:45:32.760Z,0
2018-12-22T00:46:32.778Z,0
2018-12-22T00:47:32.778Z,0
2018-12-22T00:48:33.127Z,0
2018-12-22T00:49:32.263Z,0
2018-12-22T00:50:32.511Z,0
2018-12-22T00:51:32.277Z,0
2018-12-22T00:52:32.501Z,0
2018-12-22T00:53:32.556Z,0
2018-12-22T00:54:32.745Z,0
2018-12-22T00:55:32.232Z,0
2018-12-22T00:56:32.229Z,0
2018-12-22T00:57:31.738Z,0
2018-12-22T00:58:39.877Z,0
2018-12-22T00:59:32.501Z,0
2018-12-22T01:00:32.739Z,0
2018-12-22T01:01:32.005Z,0
2018-12-22T01:02:32.454Z,0
2018-12-22T01:03:32.471Z,0
2018-12-22T01:04:32.563Z,0
2018-12-22T01:05:32.220Z,0
2018-12-22T01:06:32.185Z,0
2018-12-22T01:07:32.443Z,0
2018-12-22T01:08:32.216Z,0
2018-12-22T01:09:32.441Z,0
2018-12-22T01:10:32.445Z,0
2018-12-22T01:11:32.442Z,0
2018-12-22T01:12:32.167Z,0
2018-12-22T01:13:32.438Z,0
2018-12-22T01:14:32.226Z,0
2018-12-22T01:15:31.945Z,0
2018-12-22T01:16:32.153Z,0
2018-12-22T01:17:32.159Z,0
2018-12-22T01:18:32.395Z,0
2018-12-22T01:19:34.074Z,0
2018-12-22T01:20:32.658Z,0
2018-12-22T01:21:31.885Z,0
2018-12-22T01:22:32.384Z,0
2018-12-22T01:23:32.391Z,0
2018-12-22T01:24:31.631Z,0
2018-12-22T01:25:32.623Z,0
2018-12-22T01:26:32.120Z,0
2018-12-22T01:27:32.353Z,0
2018-12-22T01:28:39.305Z,0
2018-12-22T01:29:32.109Z,0
2018-12-22T01:30:32.344Z,0
2018-12-22T01:31:32.143Z,0
2018-12-22T01:32:32.331Z,0
2018-12-22T01:33:32.091Z,0
2018-12-22T01:34:32.091Z,0
2018-12-22T01:35:32.093Z,0
2018-12-22T01:36:31.837Z,0
2018-12-22T01:37:32.155Z,0
2018-12-22T01:38:32.595Z,0
2018-12-22T01:39:32.314Z,0
2018-12-22T01:40:32.315Z,0
2018-12-22T01:41:32.321Z,0
2018-12-22T01:42:32.283Z,0
2018-12-22T01:43:32.299Z,0
2018-12-22T01:44:31.774Z,0
2018-12-22T01:45:32.278Z,0
2018-12-22T01:46:32.347Z,0
2018-12-22T01:47:32.277Z,0
2018-12-22T01:48:32.045Z,0
2018-12-22T01:49:35.216Z,0
2018-12-22T01:50:31.548Z,0
2018-12-22T01:51:32.296Z,0
2018-12-22T01:52:32.012Z,0
2018-12-22T01:53:32.107Z,0
2018-12-22T01:54:32.272Z,0
2018-12-22T01:55:31.992Z,0
2018-12-22T01:56:32.209Z,0
2018-12-22T01:57:31.705Z,0
2018-12-22T01:58:31.975Z,0
2018-12-22T01:59:32.469Z,0
2018-12-22T02:00:32.464Z,0
2018-12-22T02:01:31.973Z,0
2018-12-22T02:02:31.963Z,0
2018-12-22T02:03:31.963Z,0
2018-12-22T02:04:32.327Z,0
2018-12-22T02:05:32.441Z,0
2018-12-22T02:06:31.929Z,0
2018-12-22T02:07:32.201Z,0
2018-12-22T02:08:31.922Z,0
2018-12-22T02:09:31.925Z,0
2018-12-22T02:10:32.166Z,0
2018-12-22T02:11:31.913Z,0
2018-12-22T02:12:32.157Z,0
2018-12-22T02:13:31.901Z,0
2018-12-22T02:14:32.398Z,0
2018-12-22T02:15:31.767Z,0
2018-12-22T02:16:31.895Z,0
2018-12-22T02:17:31.657Z,0
2018-12-22T02:18:32.141Z,0
2018-12-22T02:19:33.248Z,0
2018-12-22T02:20:32.129Z,0
2018-12-22T02:21:32.124Z,0
2018-12-22T02:22:32.218Z,0
2018-12-22T02:23:31.861Z,0
2018-12-22T02:24:32.102Z,0
2018-12-22T02:25:31.848Z,0
2018-12-22T02:26:32.506Z,0
2018-12-22T02:27:32.093Z,0
2018-12-22T02:28:32.088Z,0
2018-12-22T02:29:31.584Z,0
2018-12-22T02:30:32.345Z,0
2018-12-22T02:31:32.066Z,0
2018-12-22T02:32:32.070Z,0
2018-12-22T02:33:32.086Z,0
2018-12-22T02:34:31.831Z,0
2018-12-22T02:35:32.118Z,0
2018-12-22T02:36:32.297Z,0
2018-12-22T02:37:32.307Z,0
2018-12-22T02:38:32.318Z,0
2018-12-22T02:39:32.365Z,0
2018-12-22T02:40:32.326Z,0
2018-12-22T02:41:31.795Z,0
2018-12-22T02:42:31.783Z,0
2018-12-22T02:43:31.536Z,0
2018-12-22T02:44:31.526Z,0
2018-12-22T02:45:32.014Z,0
2018-12-22T02:46:32.007Z,0
2018-12-22T02:47:32.047Z,0
2018-12-22T02:48:31.759Z,0
2018-12-22T02:49:32.012Z,0
2018-12-22T02:50:33.885Z,0
2018-12-22T02:51:32.020Z,0
2018-12-22T02:52:31.782Z,0
2018-12-22T02:53:32.223Z,0
2018-12-22T02:54:31.545Z,0
2018-12-22T02:55:31.744Z,0
2018-12-22T02:56:32.232Z,0
2018-12-22T02:57:31.983Z,0
2018-12-22T02:58:32.126Z,0
2018-12-22T02:59:32.295Z,0
2018-12-22T03:00:31.942Z,0
2018-12-22T03:01:31.935Z,0
2018-12-22T03:02:31.960Z,0
2018-12-22T03:03:31.837Z,0
2018-12-22T03:04:32.234Z,0
2018-12-22T03:05:31.985Z,0
2018-12-22T03:06:31.911Z,0
2018-12-22T03:07:31.942Z,0
2018-12-22T03:08:31.717Z,0
2018-12-22T03:09:32.165Z,0
2018-12-22T03:10:32.172Z,0
2018-12-22T03:11:32.148Z,0
2018-12-22T03:12:32.208Z,0
2018-12-22T03:13:31.648Z,0
2018-12-22T03:14:31.759Z,0
2018-12-22T03:15:32.149Z,0
2018-12-22T03:16:32.135Z,0
2018-12-22T03:17:32.019Z,0
2018-12-22T03:18:31.627Z,0
2018-12-22T03:19:32.272Z,0
2018-12-22T03:20:33.134Z,0
2018-12-22T03:21:31.854Z,0
2018-12-22T03:22:31.613Z,0
2018-12-22T03:23:32.118Z,0
2018-12-22T03:24:31.838Z,0
2018-12-22T03:25:32.135Z,0
2018-12-22T03:26:32.090Z,0
2018-12-22T03:27:31.822Z,0
2018-12-22T03:28:32.096Z,0
2018-12-22T03:29:31.808Z,0
2018-12-22T03:30:31.888Z,0
2018-12-22T03:31:31.853Z,0
2018-12-22T03:32:32.160Z,0
2018-12-22T03:33:32.082Z,0
2018-12-22T03:34:31.724Z,0
2018-12-22T03:35:32.126Z,0
2018-12-22T03:36:32.120Z,0
2018-12-22T03:37:31.528Z,0
2018-12-22T03:38:31.556Z,0
2018-12-22T03:39:32.065Z,0
2018-12-22T03:40:31.873Z,0
2018-12-22T03:41:32.043Z,0
2018-12-22T03:42:31.529Z,0
2018-12-22T03:43:31.766Z,0
2018-12-22T03:44:31.767Z,0
2018-12-22T03:45:31.501Z,0
2018-12-22T03:46:32.071Z,0
2018-12-22T03:47:31.762Z,0
2018-12-22T03:48:31.985Z,0
2018-12-22T03:49:32.026Z,0
2018-12-22T03:50:34.887Z,0
2018-12-22T03:51:31.475Z,0
2018-12-22T03:52:31.741Z,0
2018-12-22T03:53:31.783Z,0
2018-12-22T03:54:31.952Z,0
2018-12-22T03:55:31.695Z,0
2018-12-22T03:56:31.946Z,0
2018-12-22T03:57:31.960Z,0
2018-12-22T03:58:31.690Z,0
2018-12-22T03:59:34.662Z,0
2018-12-22T04:00:31.434Z,0
2018-12-22T04:01:31.690Z,0
2018-12-22T04:02:31.751Z,0
2018-12-22T04:03:31.693Z,0
2018-12-22T04:04:31.679Z,0
2018-12-22T04:05:31.659Z,0
2018-12-22T04:06:31.669Z,0
2018-12-22T04:07:31.881Z,0
2018-12-22T04:08:31.917Z,0
2018-12-22T04:09:31.734Z,0
2018-12-22T04:10:31.882Z,0
2018-12-22T04:11:31.656Z,0
2018-12-22T04:12:31.399Z,0
2018-12-22T04:13:31.627Z,0
2018-12-22T04:14:31.624Z,0
2018-12-22T04:15:31.841Z,0
2018-12-22T04:16:31.856Z,0
2018-12-22T04:17:31.603Z,0
2018-12-22T04:18:31.603Z,0
2018-12-22T04:19:31.599Z,0
2018-12-22T04:20:33.844Z,0
2018-12-22T04:21:31.567Z,0
2018-12-22T04:22:31.818Z,0
2018-12-22T04:23:31.567Z,0
2018-12-22T04:24:31.824Z,0
2018-12-22T04:25:31.577Z,0
2018-12-22T04:26:31.806Z,0
2018-12-22T04:27:31.548Z,0
2018-12-22T04:28:31.047Z,0
2018-12-22T04:29:40.892Z,0
2018-12-22T04:30:31.785Z,0
2018-12-22T04:31:31.807Z,0
2018-12-22T04:32:31.543Z,0
2018-12-22T04:33:31.813Z,0
2018-12-22T04:34:31.769Z,0
2018-12-22T04:35:31.271Z,0
2018-12-22T04:36:31.578Z,0
2018-12-22T04:37:31.504Z,0
2018-12-22T04:38:31.743Z,0
2018-12-22T04:39:31.744Z,0
2018-12-22T04:40:31.732Z,0
2018-12-22T04:41:31.242Z,0
2018-12-22T04:42:31.496Z,0
2018-12-22T04:43:31.711Z,0
2018-12-22T04:44:31.478Z,0
2018-12-22T04:45:31.475Z,0
2018-12-22T04:46:31.493Z,0
2018-12-22T04:47:31.469Z,0
2018-12-22T04:48:31.447Z,0
2018-12-22T04:49:31.470Z,0
2018-12-22T04:50:31.188Z,0
2018-12-22T04:51:32.559Z,0
2018-12-22T04:52:31.654Z,0
2018-12-22T04:53:31.666Z,0
2018-12-22T04:54:31.180Z,0
2018-12-22T04:55:30.905Z,0
2018-12-22T04:56:31.425Z,0
2018-12-22T04:57:31.162Z,0
2018-12-22T04:58:31.623Z,0
2018-12-22T04:59:31.647Z,0
2018-12-22T05:00:31.625Z,0
2018-12-22T05:01:31.127Z,0
2018-12-22T05:02:31.373Z,0
2018-12-22T05:03:31.373Z,0
2018-12-22T05:04:31.590Z,0
2018-12-22T05:05:31.583Z,0
2018-12-22T05:06:33.880Z,0
2018-12-22T05:07:31.342Z,0
2018-12-22T05:08:30.864Z,0
2018-12-22T05:09:31.363Z,0
2018-12-22T05:10:31.336Z,0
2018-12-22T05:11:31.331Z,0
2018-12-22T05:12:31.326Z,0
2018-12-22T05:13:31.577Z,0
2018-12-22T05:14:31.347Z,0
2018-12-22T05:15:31.325Z,0
2018-12-22T05:16:32.131Z,0
2018-12-22T05:17:31.330Z,0
2018-12-22T05:18:31.551Z,0
2018-12-22T05:19:31.055Z,0
2018-12-22T05:20:31.302Z,0
2018-12-22T05:21:31.840Z,0
2018-12-22T05:22:31.351Z,0
2018-12-22T05:23:31.537Z,0
2018-12-22T05:24:31.519Z,0
2018-12-22T05:25:31.298Z,0
2018-12-22T05:26:31.596Z,0
2018-12-22T05:27:31.514Z,0
2018-12-22T05:28:31.510Z,0
2018-12-22T05:29:31.034Z,0
2018-12-22T05:30:31.494Z,0
2018-12-22T05:31:31.484Z,0
2018-12-22T05:32:31.244Z,0
2018-12-22T05:33:31.481Z,0
2018-12-22T05:34:31.242Z,0
2018-12-22T05:35:31.485Z,0
2018-12-22T05:36:30.975Z,0
2018-12-22T05:37:31.483Z,0
2018-12-22T05:38:31.490Z,0
2018-12-22T05:39:31.210Z,0
2018-12-22T05:40:31.213Z,0
2018-12-22T05:41:31.510Z,0
2018-12-22T05:42:31.458Z,0
2018-12-22T05:43:31.438Z,0
2018-12-22T05:44:30.958Z,0
2018-12-22T05:45:31.445Z,0
2018-12-22T05:46:30.941Z,0
2018-12-22T05:47:31.209Z,0
2018-12-22T05:48:30.938Z,0
2018-12-22T05:49:31.196Z,0
2018-12-22T05:50:31.199Z,0
2018-12-22T05:51:31.461Z,0
2018-12-22T05:52:31.167Z,0
2018-12-22T05:53:30.901Z,0
2018-12-22T05:54:30.659Z,0
2018-12-22T05:55:30.928Z,0
2018-12-22T05:56:32.302Z,0
2018-12-22T05:57:31.134Z,0
2018-12-22T05:58:30.652Z,0
2018-12-22T05:59:31.152Z,0
2018-12-22T06:00:30.884Z,0
2018-12-22T06:01:30.894Z,0
2018-12-22T06:02:31.359Z,0
2018-12-22T06:03:30.863Z,0
2018-12-22T06:04:31.353Z,0
2018-12-22T06:05:31.360Z,0
2018-12-22T06:06:31.102Z,0
2018-12-22T06:07:31.098Z,0
2018-12-22T06:08:30.852Z,0
2018-12-22T06:09:30.590Z,0
2018-12-22T06:10:30.877Z,0
2018-12-22T06:11:31.348Z,0
2018-12-22T06:12:30.589Z,0
2018-12-22T06:13:31.333Z,0
2018-12-22T06:14:31.083Z,0
2018-12-22T06:15:31.090Z,0
2018-12-22T06:16:31.060Z,0
2018-12-22T06:17:32.146Z,0
2018-12-22T06:18:30.567Z,0
2018-12-22T06:19:31.065Z,0
2018-12-22T06:20:31.047Z,0
2018-12-22T06:21:31.033Z,0
2018-12-22T06:22:31.337Z,0
2018-12-22T06:23:31.319Z,0
2018-12-22T06:24:31.043Z,0
2018-12-22T06:25:31.036Z,0
2018-12-22T06:26:30.764Z,0
2018-12-22T06:27:30.796Z,0
2018-12-22T06:28:31.364Z,0
2018-12-22T06:29:31.035Z,0
2018-12-22T06:30:31.260Z,0
2018-12-22T06:31:30.760Z,0
2018-12-22T06:32:31.091Z,0
2018-12-22T06:33:30.756Z,0
2018-12-22T06:34:30.494Z,0
2018-12-22T06:35:30.736Z,0
2018-12-22T06:36:30.995Z,0
2018-12-22T06:37:30.795Z,0
2018-12-22T06:38:30.782Z,0
2018-12-22T06:39:30.971Z,0
2018-12-22T06:40:30.733Z,0
2018-12-22T06:41:30.699Z,0
2018-12-22T06:42:30.463Z,0
2018-12-22T06:43:30.974Z,0
2018-12-22T06:44:30.961Z,0
2018-12-22T06:45:30.939Z,0
2018-12-22T06:46:31.191Z,0
2018-12-22T06:47:30.929Z,0
2018-12-22T06:48:31.287Z,0
2018-12-22T06:49:30.695Z,0
2018-12-22T06:50:31.057Z,0
2018-12-22T06:51:30.916Z,0
2018-12-22T06:52:34.951Z,0
2018-12-22T06:53:30.685Z,0
2018-12-22T06:54:31.158Z,0
2018-12-22T06:55:30.928Z,0
2018-12-22T06:56:30.408Z,0
2018-12-22T06:57:30.680Z,0
2018-12-22T06:58:31.146Z,0
2018-12-22T06:59:30.894Z,0
2018-12-22T07:00:30.897Z,0
2018-12-22T07:01:30.898Z,0
2018-12-22T07:02:30.377Z,0
2018-12-22T07:03:30.890Z,0
2018-12-22T07:04:30.378Z,0
2018-12-22T07:05:30.602Z,0
2018-12-22T07:06:30.385Z,0
2018-12-22T07:07:30.995Z,0
2018-12-22T07:08:31.126Z,0
2018-12-22T07:09:30.599Z,0
2018-12-22T07:10:32.488Z,0
2018-12-22T07:11:30.327Z,0
2018-12-22T07:12:31.203Z,0
2018-12-22T07:13:31.070Z,0
2018-12-22T07:14:30.591Z,0
2018-12-22T07:15:30.820Z,0
2018-12-22T07:16:31.057Z,0
2018-12-22T07:17:31.097Z,0
2018-12-22T07:18:31.041Z,0
2018-12-22T07:19:30.599Z,0
2018-12-22T07:20:30.820Z,0
2018-12-22T07:21:30.559Z,0
2018-12-22T07:22:36.695Z,0
2018-12-22T07:23:31.035Z,0
2018-12-22T07:24:31.043Z,0
2018-12-22T07:25:30.784Z,0
2018-12-22T07:26:30.535Z,0
2018-12-22T07:27:31.014Z,0
2018-12-22T07:28:30.525Z,0
2018-12-22T07:29:30.282Z,0
2018-12-22T07:30:35.589Z,0
2018-12-22T07:31:31.014Z,0
2018-12-22T07:32:30.760Z,0
2018-12-22T07:33:30.741Z,0
2018-12-22T07:34:30.738Z,0
2018-12-22T07:35:30.491Z,0
2018-12-22T07:36:32.417Z,5
2018-12-22T07:37:30.241Z,5
2018-12-22T07:38:30.532Z,5
2018-12-22T07:39:30.708Z,5
2018-12-22T07:40:30.964Z,5
2018-12-22T07:41:30.940Z,5
2018-12-22T07:42:30.979Z,10
2018-12-22T07:43:30.688Z,10
2018-12-22T07:44:30.947Z,10
2018-12-22T07:45:30.710Z,10
2018-12-22T07:46:30.204Z,10
2018-12-22T07:47:30.687Z,15
2018-12-22T07:48:30.928Z,15
2018-12-22T07:49:30.685Z,15
2018-12-22T07:50:30.648Z,15
2018-12-22T07:51:30.393Z,15
2018-12-22T07:52:30.387Z,15
2018-12-22T07:53:34.401Z,15
2018-12-22T07:54:30.874Z,10
2018-12-22T07:55:30.389Z,15
2018-12-22T07:56:30.370Z,15
2018-12-22T07:57:30.867Z,15
2018-12-22T07:58:30.368Z,15
2018-12-22T07:59:30.367Z,15
2018-12-22T08:00:39.235Z,15
2018-12-22T08:01:30.868Z,15
2018-12-22T08:02:30.617Z,15
2018-12-22T08:03:30.871Z,15
2018-12-22T08:04:30.615Z,15
2018-12-22T08:05:38.407Z,20
2018-12-22T08:06:30.702Z,25
2018-12-22T08:07:30.581Z,30
2018-12-22T08:08:33.259Z,30
2018-12-22T08:09:30.830Z,35
2018-12-22T08:10:30.844Z,40
2018-12-22T08:11:30.841Z,40
2018-12-22T08:12:30.940Z,45
2018-12-22T08:13:30.834Z,45
2018-12-22T08:14:30.548Z,45
2018-12-22T08:15:30.827Z,45
2018-12-22T08:16:30.315Z,45
2018-12-22T08:17:30.800Z,45
2018-12-22T08:18:30.803Z,50
2018-12-22T08:19:30.291Z,50
2018-12-22T08:20:30.602Z,50
2018-12-22T08:21:30.546Z,45
2018-12-22T08:22:30.057Z,45
2018-12-22T08:23:35.762Z,45
2018-12-22T08:24:30.302Z,40
2018-12-22T08:25:30.499Z,45
2018-12-22T08:26:30.752Z,45
2018-12-22T08:27:30.496Z,55
2018-12-22T08:28:30.020Z,60
2018-12-22T08:29:30.257Z,60
2018-12-22T08:30:30.247Z,60
2018-12-22T08:31:32.408Z,60
2018-12-22T08:32:30.480Z,60
2018-12-22T08:33:30.503Z,60
2018-12-22T08:34:30.483Z,60
2018-12-22T08:35:30.479Z,55
2018-12-22T08:36:30.474Z,60
2018-12-22T08:37:29.950Z,65
2018-12-22T08:38:30.790Z,65
2018-12-22T08:39:30.737Z,65
2018-12-22T08:40:30.720Z,70
2018-12-22T08:41:30.678Z,75
2018-12-22T08:42:30.168Z,70
2018-12-22T08:43:30.661Z,75
2018-12-22T08:44:30.517Z,75
2018-12-22T08:45:30.176Z,80
2018-12-22T08:46:30.402Z,80
2018-12-22T08:47:30.469Z,70
2018-12-22T08:48:30.173Z,55
2018-12-22T08:49:30.157Z,55
2018-12-22T08:50:30.143Z,55
2018-12-22T08:51:30.685Z,60
2018-12-22T08:52:30.145Z,55
2018-12-22T08:53:30.128Z,50
2018-12-22T08:54:32.298Z,55
2018-12-22T08:55:30.376Z,55
2018-12-22T08:56:30.710Z,50
2018-12-22T08:57:30.379Z,50
2018-12-22T08:58:30.114Z,50
2018-12-22T08:59:30.632Z,55
2018-12-22T09:00:30.337Z,60
2018-12-22T09:01:30.725Z,65
2018-12-22T09:02:30.593Z,70
2018-12-22T09:03:30.096Z,75
2018-12-22T09:04:30.329Z,80
2018-12-22T09:05:30.079Z,80
2018-12-22T09:06:30.565Z,80
2018-12-22T09:07:30.307Z,85
2018-12-22T09:08:30.344Z,85
2018-12-22T09:09:30.606Z,85
2018-12-22T09:10:30.299Z,80
2018-12-22T09:11:30.294Z,75
2018-12-22T09:12:30.557Z,65
2018-12-22T09:13:30.435Z,65
2018-12-22T09:14:30.535Z,60
2018-12-22T09:15:30.551Z,60
2018-12-22T09:16:30.067Z,70
2018-12-22T09:17:30.539Z,65
2018-12-22T09:18:30.064Z,55
2018-12-22T09:19:30.502Z,50
2018-12-22T09:20:31.744Z,45
2018-12-22T09:21:30.252Z,35
2018-12-22T09:22:30.048Z,40
2018-12-22T09:23:30.314Z,45
2018-12-22T09:24:35.298Z,45
2018-12-22T09:25:30.264Z,40
2018-12-22T09:26:30.238Z,45
2018-12-22T09:27:30.541Z,45
2018-12-22T09:28:30.242Z,50
2018-12-22T09:29:30.493Z,45
2018-12-22T09:30:30.204Z,45
2018-12-22T09:31:30.470Z,40
2018-12-22T09:32:29.973Z,40
2018-12-22T09:33:30.231Z,40
2018-12-22T09:34:30.204Z,50
2018-12-22T09:35:30.021Z,55
2018-12-22T09:36:30.201Z,65
2018-12-22T09:37:30.361Z,70
2018-12-22T09:38:30.465Z,65
2018-12-22T09:39:30.505Z,55
2018-12-22T09:40:30.417Z,55
2018-12-22T09:41:30.452Z,50
2018-12-22T09:42:30.415Z,45
2018-12-22T09:43:29.911Z,40
2018-12-22T09:44:30.190Z,35
2018-12-22T09:45:29.951Z,40
2018-12-22T09:46:30.177Z,35
2018-12-22T09:47:30.154Z,30
2018-12-22T09:48:30.395Z,30
2018-12-22T09:49:29.401Z,35
2018-12-22T09:50:30.132Z,45
2018-12-22T09:51:29.886Z,55
2018-12-22T09:52:30.377Z,55
2018-12-22T09:53:30.372Z,55
2018-12-22T09:54:30.146Z,60
2018-12-22T09:55:31.554Z,65
2018-12-22T09:56:29.883Z,70
2018-12-22T09:57:30.468Z,65
2018-12-22T09:58:29.961Z,60
2018-12-22T09:59:30.358Z,55
2018-12-22T10:00:30.115Z,55
2018-12-22T10:01:30.330Z,55
2018-12-22T10:02:29.585Z,60
2018-12-22T10:03:30.086Z,60
2018-12-22T10:04:30.345Z,60
2018-12-22T10:05:30.334Z,60
2018-12-22T10:06:30.143Z,65
2018-12-22T10:07:30.089Z,70
2018-12-22T10:08:30.086Z,70
2018-12-22T10:09:30.075Z,70
2018-12-22T10:10:30.133Z,75
2018-12-22T10:11:30.312Z,80
2018-12-22T10:12:30.283Z,80
2018-12-22T10:13:30.281Z,85
2018-12-22T10:14:30.281Z,85
2018-12-22T10:15:30.038Z,85
2018-12-22T10:16:30.040Z,90
2018-12-22T10:17:30.026Z,95
2018-12-22T10:18:30.006Z,95
2018-12-22T10:19:29.785Z,95
2018-12-22T10:20:30.824Z,95
2018-12-22T10:21:30.018Z,100
2018-12-22T10:22:29.755Z,100
2018-12-22T10:23:30.000Z,105
2018-12-22T10:24:30.237Z,105
2018-12-22T10:25:31.079Z,105
2018-12-22T10:26:30.250Z,105
2018-12-22T10:27:31.800Z,105
2018-12-22T10:28:30.230Z,110
2018-12-22T10:29:30.255Z,115
2018-12-22T10:30:30.224Z,115
2018-12-22T10:31:29.948Z,110
2018-12-22T10:32:29.965Z,110
2018-12-22T10:33:29.981Z,105
2018-12-22T10:34:30.003Z,105
2018-12-22T10:35:30.186Z,105
2018-12-22T10:36:29.712Z,110
2018-12-22T10:37:29.947Z,110
2018-12-22T10:38:29.948Z,115
2018-12-22T10:39:30.193Z,115
2018-12-22T10:40:29.975Z,115
2018-12-22T10:41:30.176Z,120
2018-12-22T10:42:29.918Z,120
2018-12-22T10:43:29.928Z,120
2018-12-22T10:44:30.162Z,120
2018-12-22T10:45:29.660Z,120
2018-12-22T10:46:30.134Z,125
2018-12-22T10:47:29.891Z,125
2018-12-22T10:48:30.163Z,120
2018-12-22T10:49:29.659Z,115
2018-12-22T10:50:29.996Z,110
2018-12-22T10:51:33.716Z,105
2018-12-22T10:52:30.168Z,105
2018-12-22T10:53:29.872Z,105
2018-12-22T10:54:29.644Z,95
2018-12-22T10:55:31.216Z,95
2018-12-22T10:56:29.640Z,90
2018-12-22T10:57:29.869Z,80
2018-12-22T10:58:29.851Z,75
2018-12-22T10:59:30.124Z,70
2018-12-22T11:00:30.107Z,70
2018-12-22T11:01:36.187Z,75
2018-12-22T11:02:30.943Z,80
2018-12-22T11:03:29.592Z,80
2018-12-22T11:04:30.193Z,75
2018-12-22T11:05:30.062Z,70
2018-12-22T11:06:29.373Z,65
2018-12-22T11:07:30.057Z,65
2018-12-22T11:08:30.065Z,70
2018-12-22T11:09:29.815Z,70
2018-12-22T11:10:29.551Z,65
2018-12-22T11:11:29.647Z,65
2018-12-22T11:12:29.796Z,70
2018-12-22T11:13:30.044Z,70
2018-12-22T11:14:29.801Z,70
2018-12-22T11:15:29.796Z,75
2018-12-22T11:16:30.010Z,80
2018-12-22T11:17:30.019Z,80
2018-12-22T11:18:30.011Z,80
2018-12-22T11:19:29.761Z,85
2018-12-22T11:20:30.010Z,90
2018-12-22T11:21:29.772Z,100
2018-12-22T11:22:29.772Z,100
2018-12-22T11:23:30.128Z,100
2018-12-22T11:24:30.004Z,105
2018-12-22T11:25:29.841Z,110
2018-12-22T11:26:31.143Z,105
2018-12-22T11:27:29.733Z,100
2018-12-22T11:28:29.744Z,95
2018-12-22T11:29:29.735Z,85
2018-12-22T11:30:30.087Z,70
2018-12-22T11:31:37.102Z,50
2018-12-22T11:32:29.843Z,50
2018-12-22T11:33:29.729Z,40
2018-12-22T11:34:29.733Z,40
2018-12-22T11:35:29.733Z,40
2018-12-22T11:36:29.744Z,40
2018-12-22T11:37:29.723Z,35
2018-12-22T11:38:29.482Z,30
2018-12-22T11:39:29.953Z,25
2018-12-22T11:40:29.448Z,25
2018-12-22T11:41:29.559Z,25
2018-12-22T11:42:30.340Z,25
2018-12-22T11:43:29.935Z,20
2018-12-22T11:44:29.473Z,20
2018-12-22T11:45:29.675Z,20
2018-12-22T11:46:29.429Z,20
2018-12-22T11:47:29.922Z,25
2018-12-22T11:48:29.446Z,25
2018-12-22T11:49:29.655Z,20
2018-12-22T11:50:29.952Z,20
2018-12-22T11:51:29.893Z,25
2018-12-22T11:52:29.410Z,35
2018-12-22T11:53:29.665Z,45
2018-12-22T11:54:29.493Z,50
2018-12-22T11:55:29.889Z,60
2018-12-22T11:56:31.234Z,65
2018-12-22T11:57:29.650Z,70
2018-12-22T11:58:29.609Z,80
2018-12-22T11:59:29.632Z,95
2018-12-22T12:00:29.735Z,105
2018-12-22T12:01:29.657Z,115
2018-12-22T12:02:29.934Z,120
2018-12-22T12:03:29.101Z,125
2018-12-22T12:04:29.592Z,130
2018-12-22T12:05:29.634Z,130
2018-12-22T12:06:29.855Z,130
2018-12-22T12:07:29.586Z,125
2018-12-22T12:08:29.820Z,125
2018-12-22T12:09:29.590Z,130
2018-12-22T12:10:29.824Z,130
2018-12-22T12:11:29.602Z,130
2018-12-22T12:12:29.809Z,125
2018-12-22T12:13:29.800Z,125
2018-12-22T12:14:29.553Z,120
2018-12-22T12:15:29.318Z,115
2018-12-22T12:16:29.595Z,115
2018-12-22T12:17:29.807Z,110
2018-12-22T12:18:29.549Z,115
2018-12-22T12:19:29.775Z,115
2018-12-22T12:20:29.278Z,115
2018-12-22T12:21:29.786Z,110
2018-12-22T12:22:29.265Z,110
2018-12-22T12:23:29.012Z,110
2018-12-22T12:24:29.243Z,110
2018-12-22T12:25:29.495Z,110
2018-12-22T12:26:29.731Z,110
2018-12-22T12:27:29.736Z,110
2018-12-22T12:28:29.503Z,110
2018-12-22T12:29:29.494Z,110
2018-12-22T12:30:29.458Z,115
2018-12-22T12:31:29.483Z,110
2018-12-22T12:32:29.213Z,120
2018-12-22T12:33:29.718Z,125
2018-12-22T12:34:29.454Z,125
2018-12-22T12:35:29.445Z,125
2018-12-22T12:36:29.475Z,150
2018-12-22T12:37:28.713Z,150
2018-12-22T12:38:29.685Z,120
2018-12-22T12:39:29.187Z,120
2018-12-22T12:40:29.424Z,130
2018-12-22T12:41:29.476Z,120
2018-12-22T12:42:29.182Z,115
2018-12-22T12:43:29.021Z,115
2018-12-22T12:44:29.407Z,130
2018-12-22T12:45:29.656Z,135
2018-12-22T12:46:29.160Z,130
2018-12-22T12:47:29.412Z,155
2018-12-22T12:48:29.137Z,155
2018-12-22T12:49:29.407Z,155
2018-12-22T12:50:29.135Z,155
2018-12-22T12:51:29.371Z,155
2018-12-22T12:52:29.425Z,160
2018-12-22T12:53:29.376Z,160
2018-12-22T12:54:29.132Z,165
2018-12-22T12:55:29.396Z,155
2018-12-22T12:56:30.559Z,140
2018-12-22T12:57:29.592Z,135
2018-12-22T12:58:29.093Z,130
2018-12-22T12:59:29.101Z,120
2018-12-22T13:00:29.344Z,120
2018-12-22T13:01:31.340Z,130
2018-12-22T13:02:28.817Z,125
2018-12-22T13:03:29.298Z,135
2018-12-22T13:04:29.554Z,135
2018-12-22T13:05:29.324Z,140
2018-12-22T13:06:29.187Z,115
2018-12-22T13:07:29.551Z,115
2018-12-22T13:08:29.058Z,120
2018-12-22T13:09:29.559Z,120
2018-12-22T13:10:29.539Z,115
2018-12-22T13:11:29.033Z,115
2018-12-22T13:12:29.347Z,110
2018-12-22T13:13:29.280Z,115
2018-12-22T13:14:28.801Z,115
2018-12-22T13:15:30.499Z,100
2018-12-22T13:16:29.095Z,95
2018-12-22T13:17:29.037Z,90
2018-12-22T13:18:29.266Z,90
2018-12-22T13:19:28.768Z,90
2018-12-22T13:20:29.500Z,105
2018-12-22T13:21:29.037Z,110
2018-12-22T13:22:29.021Z,115
2018-12-22T13:23:29.017Z,115
2018-12-22T13:24:28.745Z,110
2018-12-22T13:25:29.508Z,100
2018-12-22T13:26:36.668Z,100
2018-12-22T13:27:29.037Z,100
2018-12-22T13:28:28.980Z,95
2018-12-22T13:29:29.345Z,95
2018-12-22T13:30:29.027Z,80
2018-12-22T13:31:29.936Z,65
2018-12-22T13:32:28.963Z,55
2018-12-22T13:33:30.995Z,50
2018-12-22T13:34:28.982Z,40
2018-12-22T13:35:29.199Z,35
2018-12-22T13:36:37.210Z,30
2018-12-22T13:37:29.453Z,30
2018-12-22T13:38:28.945Z,30
2018-12-22T13:39:29.441Z,35
2018-12-22T13:40:28.925Z,40
2018-12-22T13:41:29.202Z,45
2018-12-22T13:42:29.227Z,40
2018-12-22T13:43:28.950Z,40
2018-12-22T13:44:28.927Z,30
2018-12-22T13:45:28.683Z,25
2018-12-22T13:46:29.167Z,20
2018-12-22T13:47:29.308Z,15
2018-12-22T13:48:30.187Z,15
2018-12-22T13:49:30.411Z,20
2018-12-22T13:50:30.271Z,20
2018-12-22T13:51:29.923Z,20
2018-12-22T13:52:29.855Z,25
2018-12-22T13:53:29.423Z,25
2018-12-22T13:54:28.675Z,30
2018-12-22T13:55:28.672Z,40
2018-12-22T13:56:28.908Z,45
2018-12-22T13:57:32.559Z,50
2018-12-22T13:58:28.656Z,50
2018-12-22T13:59:28.659Z,45
2018-12-22T14:00:28.669Z,40
2018-12-22T14:01:28.634Z,40
2018-12-22T14:02:29.159Z,40
2018-12-22T14:03:28.877Z,40
2018-12-22T14:04:28.644Z,45
2018-12-22T14:05:29.072Z,50
2018-12-22T14:06:29.083Z,50
2018-12-22T14:07:28.576Z,45
2018-12-22T14:08:29.088Z,35
2018-12-22T14:09:29.026Z,35
2018-12-22T14:10:29.070Z,35
2018-12-22T14:11:29.322Z,30
2018-12-22T14:12:28.850Z,30
2018-12-22T14:13:29.093Z,25
2018-12-22T14:14:28.822Z,25
2018-12-22T14:15:28.543Z,20
2018-12-22T14:16:29.041Z,20
2018-12-22T14:17:28.556Z,20
2018-12-22T14:18:28.537Z,15
2018-12-22T14:19:28.533Z,15
2018-12-22T14:20:29.328Z,20
2018-12-22T14:21:29.040Z,20
2018-12-22T14:22:28.514Z,25
2018-12-22T14:23:29.262Z,30
2018-12-22T14:24:29.065Z,30
2018-12-22T14:25:28.986Z,25
2018-12-22T14:26:29.000Z,20
2018-12-22T14:27:30.649Z,20